Terminal Aerodrome Forecast
Issued by NWS

Home | Current Version | Previous Version | Text Only | Print | Product List | Glossary Off
Versions: 1 2 3 4 5 6 7 8 9 10 11 12 13 14 15 16 17 18 19

000
FTUS43 KICT 292300
TAFRSL
TAF
KRSL 292320Z 3000/3024 14008KT P6SM FEW070
     FM300900 16012KT P6SM VCTS BKN070CB
     FM301500 19015G22KT P6SM BKN060=

USA.gov is the U.S. government's official web portal to all federal, state and local government web resources and services.